createdAt,value
2022-09-23T00:01:37.686Z,10.59
2022-09-23T00:04:04.096Z,10.55
2022-09-23T00:06:30.470Z,10.45
2022-09-23T00:08:56.837Z,10.59
2022-09-23T00:11:26.397Z,10.47
2022-09-23T00:13:55.806Z,10.72
2022-09-23T00:16:25.835Z,10.63
2022-09-23T00:18:52.443Z,10.56
2022-09-23T00:21:20.398Z,10.36
2022-09-23T00:23:47.156Z,10.39
2022-09-23T00:26:15.539Z,10.42
2022-09-23T00:28:42.354Z,10.47
2022-09-23T00:31:30.875Z,10.42
2022-09-23T00:33:59.988Z,10.38
2022-09-23T00:36:28.055Z,10.36
2022-09-23T00:38:54.498Z,10.39
2022-09-23T00:41:21.554Z,10.13
2022-09-23T00:43:55.539Z,9.98
2022-09-23T00:46:26.610Z,9.76
2022-09-23T00:48:59.858Z,10.05
2022-09-23T00:51:33.354Z,9.94
2022-09-23T00:54:02.043Z,9.95
2022-09-23T00:56:30.594Z,10.10
2022-09-23T00:58:57.169Z,9.85
2022-09-23T01:01:25.469Z,9.80
2022-09-23T01:03:53.572Z,9.57
2022-09-23T01:06:20.513Z,9.39
2022-09-23T01:08:47.852Z,9.59
2022-09-23T01:11:18.732Z,9.79
2022-09-23T01:14:12.994Z,9.67
2022-09-23T01:17:00.288Z,9.74
2022-09-23T01:20:14.910Z,9.80
2022-09-23T01:22:58.699Z,9.75
2022-09-23T01:25:49.285Z,9.99
2022-09-23T01:28:37.174Z,10.06
2022-09-23T01:31:15.095Z,9.58
2022-09-23T01:33:54.347Z,9.62
2022-09-23T01:36:34.056Z,9.81
2022-09-23T01:39:22.506Z,9.94
2022-09-23T01:42:01.100Z,9.90
2022-09-23T01:44:30.598Z,9.98
2022-09-23T01:47:05.750Z,9.62
2022-09-23T01:49:58.507Z,9.75
2022-09-23T01:52:36.060Z,9.77
2022-09-23T01:55:10.776Z,9.42
2022-09-23T01:58:00.984Z,9.85
2022-09-23T02:00:33.586Z,9.88
2022-09-23T02:03:35.195Z,9.82
2022-09-23T02:06:09.521Z,9.72
2022-09-23T02:08:41.586Z,9.73
2022-09-23T02:11:11.628Z,9.70
2022-09-23T02:13:41.538Z,9.79
2022-09-23T02:16:19.352Z,9.30
2022-09-23T02:19:27.486Z,9.74
2022-09-23T02:22:06.836Z,9.39
2022-09-23T02:24:36.261Z,9.76
2022-09-23T02:27:29.380Z,9.35
2022-09-23T02:30:26.622Z,9.27
2022-09-23T02:33:04.576Z,9.52
2022-09-23T02:35:48.892Z,9.58
2022-09-23T02:38:58.004Z,9.45
2022-09-23T02:41:33.267Z,9.50
2022-09-23T02:44:02.616Z,9.67
2022-09-23T02:46:29.740Z,9.65
2022-09-23T02:49:04.336Z,9.64
2022-09-23T02:51:31.788Z,9.36
2022-09-23T02:53:58.779Z,9.75
2022-09-23T02:56:25.199Z,9.64
2022-09-23T02:58:53.933Z,9.37
2022-09-23T03:01:35.657Z,9.74
2022-09-23T03:04:16.165Z,9.75
2022-09-23T03:06:54.707Z,9.76
2022-09-23T03:10:22.696Z,9.74
2022-09-23T03:13:19.387Z,9.61
2022-09-23T03:16:00.028Z,9.32
2022-09-23T03:18:32.698Z,9.37
2022-09-23T03:21:05.071Z,9.37
2022-09-23T03:23:35.236Z,9.57
2022-09-23T03:26:08.436Z,9.42
2022-09-23T03:28:36.923Z,9.76
2022-09-23T03:31:04.976Z,9.80
2022-09-23T03:33:32.855Z,9.82
2022-09-23T03:36:06.987Z,9.78
2022-09-23T03:38:39.138Z,9.80
2022-09-23T03:41:06.647Z,9.81
2022-09-23T03:43:37.988Z,9.78
2022-09-23T03:46:05.582Z,9.76
2022-09-23T03:48:32.033Z,9.63
2022-09-23T03:50:58.754Z,9.82
2022-09-23T03:53:25.241Z,9.76
2022-09-23T03:55:51.679Z,9.73
2022-09-23T03:58:18.111Z,9.67
2022-09-23T04:00:44.656Z,9.80
2022-09-23T04:03:12.047Z,9.81
2022-09-23T04:05:38.660Z,9.80
2022-09-23T04:08:05.097Z,9.77
2022-09-23T04:10:31.561Z,9.45
2022-09-23T04:12:57.975Z,9.82
2022-09-23T04:15:24.377Z,9.70
2022-09-23T04:17:50.769Z,9.70
2022-09-23T04:20:17.147Z,9.78
2022-09-23T04:22:43.577Z,9.80
2022-09-23T04:25:09.996Z,9.59
2022-09-23T04:27:37.944Z,9.44
2022-09-23T04:30:04.864Z,9.82
2022-09-23T04:32:31.289Z,9.87
2022-09-23T04:34:57.729Z,9.98
2022-09-23T04:37:24.098Z,9.70
2022-09-23T04:39:50.495Z,9.84
2022-09-23T04:42:16.913Z,9.98
2022-09-23T04:44:43.324Z,10.01
2022-09-23T04:47:09.720Z,9.90
2022-09-23T04:49:36.117Z,9.97
2022-09-23T04:52:02.636Z,9.97
2022-09-23T04:54:29.217Z,9.82
2022-09-23T04:56:55.633Z,9.65
2022-09-23T04:59:22.046Z,9.69
2022-09-23T05:01:48.586Z,9.94
2022-09-23T05:04:15.050Z,9.76
2022-09-23T05:06:41.811Z,10.09
2022-09-23T05:09:08.895Z,10.04
2022-09-23T05:11:35.862Z,9.68
2022-09-23T05:14:02.895Z,9.66
2022-09-23T05:16:29.477Z,9.94
2022-09-23T05:18:56.113Z,9.94
2022-09-23T05:21:24.568Z,9.89
2022-09-23T05:23:53.785Z,9.95
2022-09-23T05:26:21.953Z,9.56
2022-09-23T05:28:48.572Z,9.83
2022-09-23T05:31:20.339Z,9.89
2022-09-23T05:33:52.814Z,9.78
2022-09-23T05:36:20.832Z,9.82
2022-09-23T05:38:48.616Z,9.83
2022-09-23T05:41:15.803Z,9.57
2022-09-23T05:43:42.259Z,9.89
2022-09-23T05:46:13.283Z,9.83
2022-09-23T05:48:41.634Z,9.83
2022-09-23T05:51:10.392Z,9.83
2022-09-23T05:53:37.348Z,9.89
2022-09-23T05:58:31.193Z,9.53
2022-09-23T06:00:58.270Z,9.81
2022-09-23T06:03:26.027Z,9.47
2022-09-23T06:05:54.226Z,9.57
2022-09-23T06:08:21.532Z,9.96
2022-09-23T06:10:53.550Z,9.95
2022-09-23T06:13:20.890Z,9.69
2022-09-23T06:15:47.342Z,9.97
2022-09-23T06:18:13.785Z,10.02
2022-09-23T06:20:40.196Z,10.09
2022-09-23T06:23:10.537Z,9.75
2022-09-23T06:25:38.129Z,10.29
2022-09-23T06:28:05.418Z,10.34
2022-09-23T06:30:31.802Z,9.99
2022-09-23T06:32:58.195Z,10.33
2022-09-23T06:35:27.842Z,10.42
2022-09-23T06:37:54.853Z,10.54
2022-09-23T06:40:22.066Z,10.62
2022-09-23T06:42:52.302Z,10.67
2022-09-23T06:45:18.876Z,10.68
2022-09-23T06:47:45.286Z,10.76
2022-09-23T06:50:11.807Z,10.80
2022-09-23T06:52:38.935Z,10.94
2022-09-23T06:55:06.032Z,10.69
2022-09-23T06:57:33.181Z,10.72
2022-09-23T06:59:59.760Z,11.06
2022-09-23T07:02:26.870Z,11.15
2022-09-23T07:04:53.525Z,11.25
2022-09-23T07:07:19.908Z,11.19
2022-09-23T07:09:46.308Z,11.23
2022-09-23T07:12:12.717Z,11.46
2022-09-23T07:14:39.143Z,11.49
2022-09-23T07:17:05.565Z,11.58
2022-09-23T07:19:32.030Z,11.72
2022-09-23T07:21:58.445Z,11.61
2022-09-23T07:24:24.865Z,11.57
2022-09-23T07:26:51.331Z,11.69
2022-09-23T07:29:17.741Z,11.81
2022-09-23T07:31:44.200Z,11.91
2022-09-23T07:34:11.032Z,11.98
2022-09-23T07:36:38.461Z,11.88
2022-09-23T07:39:05.108Z,12.17
2022-09-23T07:41:33.016Z,12.43
2022-09-23T07:43:59.958Z,12.22
2022-09-23T07:46:28.120Z,12.85
2022-09-23T07:48:54.637Z,13.08
2022-09-23T07:51:29.844Z,12.91
2022-09-23T07:53:58.646Z,12.75
2022-09-23T07:56:27.090Z,12.83
2022-09-23T07:58:54.049Z,12.75
2022-09-23T08:01:20.507Z,12.56
2022-09-23T08:03:46.966Z,12.65
2022-09-23T08:06:13.715Z,13.04
2022-09-23T08:08:41.143Z,12.86
2022-09-23T08:11:09.725Z,13.04
2022-09-23T08:13:36.153Z,13.03
2022-09-23T08:16:02.720Z,12.96
2022-09-23T08:18:29.257Z,12.94
2022-09-23T08:20:55.677Z,12.77
2022-09-23T08:23:22.114Z,13.20
2022-09-23T08:25:48.614Z,12.89
2022-09-23T08:28:16.463Z,13.22
2022-09-23T08:30:48.752Z,13.33
2022-09-23T08:33:19.667Z,13.59
2022-09-23T08:35:49.216Z,13.93
2022-09-23T08:38:16.097Z,13.97
2022-09-23T08:40:46.609Z,14.18
2022-09-23T08:43:34.607Z,14.24
2022-09-23T08:46:05.719Z,14.18
2022-09-23T08:48:47.034Z,14.12
2022-09-23T08:51:17.199Z,14.62
2022-09-23T08:53:43.760Z,14.62
2022-09-23T08:56:14.828Z,14.64
2022-09-23T08:58:49.664Z,15.04
2022-09-23T09:01:37.542Z,15.01
2022-09-23T09:04:12.710Z,15.24
2022-09-23T09:06:53.030Z,15.26
2022-09-23T09:09:24.959Z,15.48
2022-09-23T09:11:56.769Z,15.50
2022-09-23T09:14:47.461Z,15.90
2022-09-23T09:17:26.183Z,16.38
2022-09-23T09:19:55.493Z,15.65
2022-09-23T09:22:53.982Z,16.38
2022-09-23T09:25:23.570Z,16.65
2022-09-23T09:27:51.500Z,16.66
2022-09-23T09:30:19.356Z,16.43
2022-09-23T09:32:48.256Z,15.97
2022-09-23T09:35:36.539Z,15.77
2022-09-23T09:38:03.755Z,16.70
2022-09-23T09:40:30.186Z,17.14
2022-09-23T09:42:56.676Z,17.38
2022-09-23T09:45:23.004Z,17.21
2022-09-23T09:48:14.421Z,17.17
2022-09-23T09:50:52.305Z,17.72
2022-09-23T09:53:27.508Z,17.42
2022-09-23T09:56:06.984Z,18.02
2022-09-23T09:58:39.555Z,19.11
2022-09-23T10:01:06.227Z,18.08
2022-09-23T10:03:39.069Z,17.69
2022-09-23T10:06:29.681Z,17.45
2022-09-23T10:09:02.271Z,17.55
2022-09-23T10:11:29.756Z,17.37
2022-09-23T10:14:16.331Z,16.96
2022-09-23T10:16:43.377Z,17.10
2022-09-23T10:19:35.004Z,17.25
2022-09-23T10:22:09.731Z,16.87
2022-09-23T10:24:36.204Z,17.82
2022-09-23T10:27:10.480Z,17.95
2022-09-23T10:29:40.800Z,17.21
2022-09-23T10:32:26.801Z,17.14
2022-09-23T10:35:22.415Z,17.12
2022-09-23T10:37:53.929Z,16.90
2022-09-23T10:40:31.982Z,17.32
2022-09-23T10:43:05.611Z,17.58
2022-09-23T10:45:42.594Z,17.83
2022-09-23T10:48:12.853Z,17.81
2022-09-23T10:50:50.301Z,18.02
2022-09-23T10:53:34.422Z,17.80
2022-09-23T10:56:35.381Z,17.53
2022-09-23T10:59:10.918Z,17.63
2022-09-23T11:02:39.195Z,18.13
2022-09-23T11:05:24.067Z,17.74
2022-09-23T11:08:18.326Z,18.14
2022-09-23T11:10:47.872Z,18.76
2022-09-23T11:13:43.950Z,18.44
2022-09-23T11:16:19.709Z,18.46
2022-09-23T11:18:55.028Z,17.85
2022-09-23T11:21:38.372Z,17.55
2022-09-23T11:24:23.988Z,18.22
2022-09-23T11:27:08.442Z,18.01
2022-09-23T11:29:49.812Z,18.32
2022-09-23T11:32:34.977Z,18.17
2022-09-23T11:35:26.605Z,17.48
2022-09-23T11:38:01.224Z,18.08
2022-09-23T11:40:32.019Z,18.35
2022-09-23T11:43:14.164Z,18.32
2022-09-23T11:45:47.826Z,18.53
2022-09-23T11:48:27.299Z,18.69
2022-09-23T11:51:02.033Z,18.34
2022-09-23T11:53:48.422Z,18.51
2022-09-23T11:56:32.060Z,18.53
2022-09-23T11:59:14.170Z,17.94
2022-09-23T12:01:56.775Z,17.93
2022-09-23T12:04:33.524Z,18.20
2022-09-23T12:07:12.624Z,18.30
2022-09-23T12:10:01.057Z,17.89
2022-09-23T12:12:39.873Z,17.75
2022-09-23T12:15:31.113Z,17.94
2022-09-23T12:18:06.769Z,17.77
2022-09-23T12:20:39.413Z,18.30
2022-09-23T12:23:24.244Z,18.04
2022-09-23T12:26:00.377Z,18.00
2022-09-23T12:28:32.699Z,17.86
2022-09-23T12:31:02.249Z,18.17
2022-09-23T12:33:35.718Z,18.21
2022-09-23T12:36:08.226Z,17.86
2022-09-23T12:38:52.036Z,18.45
2022-09-23T12:41:32.931Z,18.45
2022-09-23T12:44:12.578Z,18.53
2022-09-23T12:46:45.935Z,18.11
2022-09-23T12:49:27.324Z,18.38
2022-09-23T12:52:12.094Z,18.20
2022-09-23T12:54:40.139Z,17.98
2022-09-23T12:57:11.687Z,18.17
2022-09-23T12:59:58.212Z,18.20
2022-09-23T13:02:29.959Z,17.65
2022-09-23T13:05:03.408Z,17.70
2022-09-23T13:07:32.723Z,17.97
2022-09-23T13:10:13.534Z,17.75
2022-09-23T13:12:43.572Z,18.30
2022-09-23T13:15:36.346Z,17.74
2022-09-23T13:18:20.902Z,17.94
2022-09-23T13:20:48.965Z,17.75
2022-09-23T13:23:29.642Z,17.90
2022-09-23T13:25:59.270Z,18.57
2022-09-23T13:28:55.973Z,17.62
2022-09-23T13:31:22.497Z,17.51
2022-09-23T13:33:56.523Z,17.79
2022-09-23T13:36:22.988Z,17.52
2022-09-23T13:38:49.412Z,17.27
2022-09-23T13:41:21.786Z,17.54
2022-09-23T13:43:51.793Z,17.97
2022-09-23T13:46:22.654Z,18.01
2022-09-23T13:48:52.635Z,17.75
2022-09-23T13:51:24.645Z,17.88
2022-09-23T13:53:55.433Z,17.70
2022-09-23T13:56:23.185Z,17.15
2022-09-23T13:58:49.725Z,17.47
2022-09-23T14:01:21.570Z,17.14
2022-09-23T14:03:48.084Z,17.29
2022-09-23T14:06:15.427Z,17.33
2022-09-23T14:08:46.166Z,17.25
2022-09-23T14:11:21.423Z,17.45
2022-09-23T14:13:50.810Z,17.11
2022-09-23T14:16:17.975Z,17.21
2022-09-23T14:18:46.769Z,17.26
2022-09-23T14:21:27.441Z,17.05
2022-09-23T14:23:54.207Z,16.99
2022-09-23T14:26:23.177Z,16.90
2022-09-23T14:28:50.137Z,16.89
2022-09-23T14:31:16.823Z,16.94
2022-09-23T14:33:43.565Z,17.03
2022-09-23T14:36:14.380Z,17.21
2022-09-23T14:38:40.821Z,17.07
2022-09-23T14:41:16.279Z,16.83
2022-09-23T14:44:03.443Z,17.21
2022-09-23T14:46:32.519Z,17.13
2022-09-23T14:49:25.297Z,16.97
2022-09-23T14:51:58.250Z,16.95
2022-09-23T14:54:39.967Z,16.83
2022-09-23T14:57:30.580Z,16.61
2022-09-23T15:00:01.383Z,16.82
2022-09-23T15:02:31.674Z,16.74
2022-09-23T15:05:21.753Z,16.53
2022-09-23T15:07:51.272Z,16.55
2022-09-23T15:10:22.110Z,16.77
2022-09-23T15:12:48.689Z,16.73
2022-09-23T15:15:16.685Z,16.73
2022-09-23T15:17:44.256Z,16.50
2022-09-23T15:20:16.864Z,16.82
2022-09-23T15:22:48.396Z,16.40
2022-09-23T15:25:16.548Z,16.18
2022-09-23T15:27:55.697Z,16.45
2022-09-23T15:30:22.295Z,16.45
2022-09-23T15:32:48.713Z,16.29
2022-09-23T15:35:20.990Z,15.91
2022-09-23T15:37:49.787Z,16.21
2022-09-23T15:40:22.415Z,16.20
2022-09-23T15:42:50.010Z,16.22
2022-09-23T15:45:16.430Z,15.95
2022-09-23T15:47:42.845Z,15.90
2022-09-23T15:50:12.069Z,16.10
2022-09-23T15:52:38.545Z,15.93
2022-09-23T15:55:16.589Z,15.59
2022-09-23T15:57:43.059Z,15.84
2022-09-23T16:00:12.361Z,15.56
2022-09-23T16:02:39.659Z,15.48
2022-09-23T16:05:06.359Z,15.51
2022-09-23T16:07:32.745Z,15.37
2022-09-23T16:09:59.189Z,15.35
2022-09-23T16:12:25.717Z,15.26
2022-09-23T16:14:52.152Z,15.52
2022-09-23T16:17:18.578Z,15.44
2022-09-23T16:19:44.982Z,15.02
2022-09-23T16:22:15.356Z,15.07
2022-09-23T16:24:41.869Z,15.35
2022-09-23T16:27:12.328Z,15.43
2022-09-23T16:29:38.732Z,15.40
2022-09-23T16:32:05.241Z,15.28
2022-09-23T16:34:31.747Z,15.12
2022-09-23T16:36:58.191Z,14.84
2022-09-23T16:39:24.568Z,14.95
2022-09-23T16:41:51.058Z,15.17
2022-09-23T16:44:17.586Z,15.16
2022-09-23T16:46:44.012Z,15.11
2022-09-23T16:49:10.603Z,15.14
2022-09-23T16:51:37.070Z,15.01
2022-09-23T16:54:09.613Z,15.00
2022-09-23T16:56:37.988Z,14.90
2022-09-23T16:59:05.023Z,14.92
2022-09-23T17:01:31.997Z,14.88
2022-09-23T17:03:58.537Z,14.84
2022-09-23T17:06:25.347Z,14.61
2022-09-23T17:08:51.753Z,14.74
2022-09-23T17:11:18.201Z,14.80
2022-09-23T17:13:44.898Z,14.72
2022-09-23T17:16:21.698Z,14.70
2022-09-23T17:18:48.171Z,14.65
2022-09-23T17:21:14.564Z,14.64
2022-09-23T17:23:41.037Z,14.58
2022-09-23T17:26:07.496Z,14.54
2022-09-23T17:28:33.878Z,14.53
2022-09-23T17:31:02.862Z,14.52
2022-09-23T17:33:31.611Z,14.41
2022-09-23T17:35:58.208Z,14.41
2022-09-23T17:38:28.924Z,14.32
2022-09-23T17:40:57.781Z,14.36
2022-09-23T17:43:24.181Z,14.27
2022-09-23T17:45:55.964Z,14.08
2022-09-23T17:48:24.080Z,14.30
2022-09-23T17:50:57.539Z,14.27
2022-09-23T17:53:24.772Z,13.89
2022-09-23T17:56:03.765Z,14.21
2022-09-23T17:58:33.203Z,14.20
2022-09-23T18:00:59.746Z,14.16
2022-09-23T18:03:28.383Z,14.12
2022-09-23T18:05:55.424Z,14.11
2022-09-23T18:08:21.897Z,14.13
2022-09-23T18:10:48.331Z,14.09
2022-09-23T18:13:14.763Z,14.04
2022-09-23T18:15:41.216Z,14.11
2022-09-23T18:18:07.743Z,14.06
2022-09-23T18:20:34.302Z,14.02
2022-09-23T18:23:00.747Z,13.66
2022-09-23T18:25:38.574Z,13.99
2022-09-23T18:28:05.832Z,13.69
2022-09-23T18:30:32.261Z,13.97
2022-09-23T18:32:59.607Z,13.94
2022-09-23T18:35:25.978Z,13.59
2022-09-23T18:37:52.411Z,13.80
2022-09-23T18:40:18.885Z,13.97
2022-09-23T18:42:45.373Z,13.80
2022-09-23T18:45:11.838Z,13.91
2022-09-23T18:47:38.772Z,13.90
2022-09-23T18:50:05.863Z,13.75
2022-09-23T18:52:32.257Z,13.90
2022-09-23T18:54:58.663Z,13.93
2022-09-23T18:57:25.104Z,13.83
2022-09-23T18:59:51.493Z,13.61
2022-09-23T19:02:17.966Z,13.81
2022-09-23T19:04:44.433Z,13.70
2022-09-23T19:07:10.868Z,13.86
2022-09-23T19:09:37.281Z,13.83
2022-09-23T19:12:03.893Z,13.83
2022-09-23T19:14:30.274Z,13.71
2022-09-23T19:16:56.700Z,13.41
2022-09-23T19:19:23.106Z,13.77
2022-09-23T19:21:49.526Z,13.53
2022-09-23T19:24:16.272Z,13.66
2022-09-23T19:26:43.950Z,13.88
2022-09-23T19:29:16.411Z,13.74
2022-09-23T19:31:43.389Z,13.69
2022-09-23T19:34:18.096Z,13.35
2022-09-23T19:36:46.675Z,13.73
2022-09-23T19:39:22.940Z,13.61
2022-09-23T19:41:50.906Z,13.59
2022-09-23T19:44:17.428Z,13.61
2022-09-23T19:46:46.330Z,13.29
2022-09-23T19:49:13.062Z,13.60
2022-09-23T19:51:39.773Z,13.55
2022-09-23T19:54:07.410Z,13.57
2022-09-23T19:56:34.645Z,13.52
2022-09-23T19:59:01.323Z,13.58
2022-09-23T20:01:29.152Z,13.49
2022-09-23T20:03:56.062Z,13.69
2022-09-23T20:06:22.753Z,13.59
2022-09-23T20:08:49.966Z,13.46
2022-09-23T20:11:19.410Z,13.49
2022-09-23T20:13:47.091Z,13.40
2022-09-23T20:16:16.092Z,13.40
2022-09-23T20:18:43.167Z,13.05
2022-09-23T20:21:12.197Z,13.41
2022-09-23T20:23:38.937Z,13.20
2022-09-23T20:26:06.260Z,12.85
2022-09-23T20:28:32.687Z,13.34
2022-09-23T20:30:59.150Z,13.38
2022-09-23T20:33:25.577Z,12.88
2022-09-23T20:35:51.979Z,13.24
2022-09-23T20:38:18.336Z,13.11
2022-09-23T20:40:44.838Z,13.15
2022-09-23T20:43:11.326Z,13.11
2022-09-23T20:45:37.714Z,13.17
2022-09-23T20:48:04.304Z,13.02
2022-09-23T20:50:30.682Z,13.16
2022-09-23T20:52:57.123Z,13.04
2022-09-23T20:55:23.717Z,12.92
2022-09-23T20:57:50.189Z,13.04
2022-09-23T21:00:16.642Z,13.10
2022-09-23T21:02:44.077Z,12.81
2022-09-23T21:05:10.510Z,13.01
2022-09-23T21:07:36.911Z,12.88
2022-09-23T21:10:03.615Z,12.80
2022-09-23T21:12:30.095Z,12.88
2022-09-23T21:14:56.583Z,12.91
2022-09-23T21:17:23.000Z,12.74
2022-09-23T21:19:49.407Z,12.33
2022-09-23T21:22:15.803Z,12.34
2022-09-23T21:27:28.619Z,12.71
2022-09-23T21:29:55.049Z,12.75
2022-09-23T21:32:21.435Z,12.66
2022-09-23T21:34:47.883Z,12.76
2022-09-23T21:37:14.428Z,12.84
2022-09-23T21:39:40.866Z,12.65
2022-09-23T21:42:07.294Z,12.68
2022-09-23T21:44:33.690Z,12.62
2022-09-23T21:47:00.188Z,12.78
2022-09-23T21:49:26.677Z,12.66
2022-09-23T21:51:53.097Z,12.69
2022-09-23T21:54:19.503Z,12.21
2022-09-23T21:56:46.048Z,12.64
2022-09-23T21:59:12.554Z,12.58
2022-09-23T22:01:41.821Z,12.56
2022-09-23T22:04:15.282Z,12.52
2022-09-23T22:06:41.863Z,12.06
2022-09-23T22:09:12.658Z,12.44
2022-09-23T22:11:40.143Z,12.52
2022-09-23T22:14:09.253Z,12.50
2022-09-23T22:16:35.797Z,12.51
2022-09-23T22:19:03.231Z,12.48
2022-09-23T22:21:30.216Z,11.94
2022-09-23T22:23:58.749Z,12.26
2022-09-23T22:26:25.181Z,12.26
2022-09-23T22:28:51.582Z,11.89
2022-09-23T22:31:18.042Z,11.91
2022-09-23T22:33:44.496Z,12.39
2022-09-23T22:36:10.940Z,12.34
2022-09-23T22:38:37.809Z,12.31
2022-09-23T22:41:04.330Z,11.99
2022-09-23T22:43:32.920Z,12.01
2022-09-23T22:45:59.287Z,12.28
2022-09-23T22:48:25.706Z,12.08
2022-09-23T22:50:52.082Z,12.37
2022-09-23T22:53:18.475Z,11.98
2022-09-23T22:55:44.866Z,12.36
2022-09-23T22:58:31.286Z,12.43
2022-09-23T23:00:58.413Z,12.38
2022-09-23T23:03:25.385Z,12.39
2022-09-23T23:05:52.583Z,12.34
2022-09-23T23:08:18.951Z,11.93
2022-09-23T23:10:45.352Z,12.04
2022-09-23T23:13:11.763Z,12.31
2022-09-23T23:15:38.951Z,12.30
2022-09-23T23:18:05.634Z,11.96
2022-09-23T23:20:32.112Z,12.22
2022-09-23T23:23:01.307Z,12.05
2022-09-23T23:25:28.431Z,12.17
2022-09-23T23:27:55.232Z,11.95
2022-09-23T23:30:25.520Z,11.80
2022-09-23T23:32:51.952Z,12.12
2022-09-23T23:35:18.389Z,12.29
2022-09-23T23:37:44.868Z,12.29
2022-09-23T23:40:11.559Z,12.18
2022-09-23T23:42:37.981Z,12.16
2022-09-23T23:45:04.881Z,11.94
2022-09-23T23:47:31.261Z,12.19
2022-09-23T23:49:57.705Z,11.84
2022-09-23T23:52:24.152Z,12.04
2022-09-23T23:54:50.597Z,12.21
2022-09-23T23:57:16.992Z,12.11
2022-09-23T23:59:43.389Z,12.13
